sensor_id;sensor_type;location;lat;lon;timestamp;pressure;altitude;pressure_sealevel;temperature;humidity
21863;BME280;11096;51.338;12.524;2023-02-20T00:02:22;100851.56;;;4.79;98.14
21863;BME280;11096;51.338;12.524;2023-02-20T00:04:47;100842.56;;;4.92;98.13
21863;BME280;11096;51.338;12.524;2023-02-20T00:07:13;100845.28;;;4.88;97.86
21863;BME280;11096;51.338;12.524;2023-02-20T00:09:38;100848.00;;;4.83;97.75
21863;BME280;11096;51.338;12.524;2023-02-20T00:12:03;100839.72;;;4.75;97.79
21863;BME280;11096;51.338;12.524;2023-02-20T00:14:29;100847.59;;;4.70;97.89
21863;BME280;11096;51.338;12.524;2023-02-20T00:16:54;100842.47;;;4.69;98.13
21863;BME280;11096;51.338;12.524;2023-02-20T00:19:20;100837.69;;;4.58;98.08
21863;BME280;11096;51.338;12.524;2023-02-20T00:21:49;100837.84;;;4.54;98.50
21863;BME280;11096;51.338;12.524;2023-02-20T00:24:17;100836.59;;;4.65;98.50
21863;BME280;11096;51.338;12.524;2023-02-20T00:26:47;100841.97;;;4.58;98.19
21863;BME280;11096;51.338;12.524;2023-02-20T00:29:20;100840.91;;;4.38;98.11
21863;BME280;11096;51.338;12.524;2023-02-20T00:31:53;100833.09;;;4.41;98.77
21863;BME280;11096;51.338;12.524;2023-02-20T00:34:21;100834.75;;;4.42;98.98
21863;BME280;11096;51.338;12.524;2023-02-20T00:36:46;100832.94;;;4.46;99.37
21863;BME280;11096;51.338;12.524;2023-02-20T00:39:12;100823.38;;;4.49;99.69
21863;BME280;11096;51.338;12.524;2023-02-20T00:41:37;100817.41;;;4.49;99.48
21863;BME280;11096;51.338;12.524;2023-02-20T00:44:03;100814.06;;;4.45;99.79
21863;BME280;11096;51.338;12.524;2023-02-20T00:46:28;100806.72;;;4.35;100.00
21863;BME280;11096;51.338;12.524;2023-02-20T00:48:54;100798.03;;;4.37;100.00
21863;BME280;11096;51.338;12.524;2023-02-20T00:51:19;100796.66;;;4.27;100.00
21863;BME280;11096;51.338;12.524;2023-02-20T00:53:44;100789.94;;;4.23;100.00
21863;BME280;11096;51.338;12.524;2023-02-20T00:56:10;100788.41;;;4.17;100.00
21863;BME280;11096;51.338;12.524;2023-02-20T00:58:35;100793.78;;;4.09;100.00
21863;BME280;11096;51.338;12.524;2023-02-20T01:01:01;100781.88;;;4.07;100.00
21863;BME280;11096;51.338;12.524;2023-02-20T01:03:26;100784.31;;;4.12;100.00
21863;BME280;11096;51.338;12.524;2023-02-20T01:05:51;100773.41;;;4.03;100.00
21863;BME280;11096;51.338;12.524;2023-02-20T01:08:17;100773.56;;;3.99;100.00
21863;BME280;11096;51.338;12.524;2023-02-20T01:10:42;100790.41;;;4.07;100.00
21863;BME280;11096;51.338;12.524;2023-02-20T01:13:08;100800.44;;;4.17;100.00
21863;BME280;11096;51.338;12.524;2023-02-20T01:15:33;100802.72;;;4.26;100.00
21863;BME280;11096;51.338;12.524;2023-02-20T01:17:58;100788.91;;;4.28;100.00
21863;BME280;11096;51.338;12.524;2023-02-20T01:20:24;100791.25;;;4.35;100.00
21863;BME280;11096;51.338;12.524;2023-02-20T01:22:49;100791.13;;;4.39;100.00
21863;BME280;11096;51.338;12.524;2023-02-20T01:25:15;100794.50;;;4.41;100.00
21863;BME280;11096;51.338;12.524;2023-02-20T01:27:40;100787.34;;;4.49;100.00
21863;BME280;11096;51.338;12.524;2023-02-20T01:30:07;100789.03;;;4.50;100.00
21863;BME280;11096;51.338;12.524;2023-02-20T01:32:32;100801.91;;;4.50;100.00
21863;BME280;11096;51.338;12.524;2023-02-20T01:34:58;100803.47;;;4.55;100.00
21863;BME280;11096;51.338;12.524;2023-02-20T01:37:23;100806.84;;;4.57;100.00
21863;BME280;11096;51.338;12.524;2023-02-20T01:39:49;100793.13;;;4.56;100.00
21863;BME280;11096;51.338;12.524;2023-02-20T01:42:20;100792.72;;;4.68;100.00
21863;BME280;11096;51.338;12.524;2023-02-20T01:44:47;100784.78;;;4.74;100.00
21863;BME280;11096;51.338;12.524;2023-02-20T01:47:16;100795.81;;;4.78;100.00
21863;BME280;11096;51.338;12.524;2023-02-20T01:49:46;100794.34;;;4.96;100.00
21863;BME280;11096;51.338;12.524;2023-02-20T01:52:32;100787.56;;;4.93;100.00
21863;BME280;11096;51.338;12.524;2023-02-20T01:55:05;100779.63;;;5.23;100.00
21863;BME280;11096;51.338;12.524;2023-02-20T01:57:34;100768.75;;;5.15;100.00
21863;BME280;11096;51.338;12.524;2023-02-20T02:00:07;100769.56;;;5.17;100.00
21863;BME280;11096;51.338;12.524;2023-02-20T02:02:37;100754.81;;;5.21;100.00
21863;BME280;11096;51.338;12.524;2023-02-20T02:05:04;100750.41;;;5.24;100.00
21863;BME280;11096;51.338;12.524;2023-02-20T02:07:30;100742.66;;;5.24;100.00
21863;BME280;11096;51.338;12.524;2023-02-20T02:10:02;100738.81;;;5.12;100.00
21863;BME280;11096;51.338;12.524;2023-02-20T02:12:28;100743.88;;;5.14;100.00
21863;BME280;11096;51.338;12.524;2023-02-20T02:14:54;100744.84;;;5.11;100.00
21863;BME280;11096;51.338;12.524;2023-02-20T02:28:43;100719.47;;;5.24;100.00
21863;BME280;11096;51.338;12.524;2023-02-20T02:39:42;100705.03;;;5.20;100.00
21863;BME280;11096;51.338;12.524;2023-02-20T02:45:28;100705.19;;;5.15;100.00
21863;BME280;11096;51.338;12.524;2023-02-20T02:47:59;100702.66;;;5.14;100.00
21863;BME280;11096;51.338;12.524;2023-02-20T02:50:35;100698.38;;;5.14;100.00
21863;BME280;11096;51.338;12.524;2023-02-20T02:53:04;100695.97;;;5.10;100.00
21863;BME280;11096;51.338;12.524;2023-02-20T02:55:32;100699.38;;;5.10;100.00
21863;BME280;11096;51.338;12.524;2023-02-20T02:58:01;100695.22;;;5.06;100.00
21863;BME280;11096;51.338;12.524;2023-02-20T03:00:40;100692.47;;;5.11;100.00
21863;BME280;11096;51.338;12.524;2023-02-20T03:03:28;100699.09;;;5.18;100.00
21863;BME280;11096;51.338;12.524;2023-02-20T03:06:08;100697.41;;;5.17;100.00
21863;BME280;11096;51.338;12.524;2023-02-20T03:11:19;100690.09;;;5.28;100.00
21863;BME280;11096;51.338;12.524;2023-02-20T03:13:56;100689.75;;;5.37;100.00
21863;BME280;11096;51.338;12.524;2023-02-20T03:17:05;100684.59;;;5.37;100.00
21863;BME280;11096;51.338;12.524;2023-02-20T03:19:40;100684.94;;;5.50;100.00
21863;BME280;11096;51.338;12.524;2023-02-20T03:22:21;100680.63;;;5.51;100.00
21863;BME280;11096;51.338;12.524;2023-02-20T03:24:50;100668.28;;;5.59;100.00
21863;BME280;11096;51.338;12.524;2023-02-20T03:27:32;100675.00;;;5.63;100.00
21863;BME280;11096;51.338;12.524;2023-02-20T03:30:06;100670.38;;;5.71;100.00
21863;BME280;11096;51.338;12.524;2023-02-20T03:32:35;100660.16;;;5.68;100.00
21863;BME280;11096;51.338;12.524;2023-02-20T03:35:22;100665.97;;;5.73;100.00
21863;BME280;11096;51.338;12.524;2023-02-20T03:38:08;100662.53;;;5.74;100.00
21863;BME280;11096;51.338;12.524;2023-02-20T03:40:55;100656.53;;;5.74;100.00
21863;BME280;11096;51.338;12.524;2023-02-20T03:43:41;100640.88;;;5.78;100.00
21863;BME280;11096;51.338;12.524;2023-02-20T03:46:15;100637.38;;;5.79;100.00
21863;BME280;11096;51.338;12.524;2023-02-20T03:49:02;100643.81;;;5.90;100.00
21863;BME280;11096;51.338;12.524;2023-02-20T03:51:28;100657.81;;;5.84;100.00
21863;BME280;11096;51.338;12.524;2023-02-20T03:53:54;100672.06;;;5.72;100.00
21863;BME280;11096;51.338;12.524;2023-02-20T03:56:30;100669.25;;;5.78;100.00
21863;BME280;11096;51.338;12.524;2023-02-20T03:59:18;100680.50;;;5.98;100.00
21863;BME280;11096;51.338;12.524;2023-02-20T04:01:49;100678.88;;;5.95;100.00
21863;BME280;11096;51.338;12.524;2023-02-20T04:04:20;100692.63;;;5.96;100.00
21863;BME280;11096;51.338;12.524;2023-02-20T04:06:49;100686.09;;;6.08;100.00
21863;BME280;11096;51.338;12.524;2023-02-20T04:09:26;100690.44;;;6.07;100.00
21863;BME280;11096;51.338;12.524;2023-02-20T04:11:57;100685.13;;;6.10;100.00
21863;BME280;11096;51.338;12.524;2023-02-20T04:14:24;100685.69;;;6.18;99.15
21863;BME280;11096;51.338;12.524;2023-02-20T04:16:55;100681.41;;;6.17;98.57
21863;BME280;11096;51.338;12.524;2023-02-20T04:19:23;100681.50;;;6.16;97.91
21863;BME280;11096;51.338;12.524;2023-02-20T04:21:54;100681.34;;;6.19;97.09
21863;BME280;11096;51.338;12.524;2023-02-20T04:24:25;100683.88;;;6.20;96.72
21863;BME280;11096;51.338;12.524;2023-02-20T04:26:52;100661.63;;;6.18;96.86
21863;BME280;11096;51.338;12.524;2023-02-20T04:29:18;100662.59;;;6.15;96.35
21863;BME280;11096;51.338;12.524;2023-02-20T04:31:44;100658.97;;;6.19;96.28
21863;BME280;11096;51.338;12.524;2023-02-20T04:34:10;100652.81;;;6.22;96.20
21863;BME280;11096;51.338;12.524;2023-02-20T04:36:36;100656.38;;;6.19;95.91
21863;BME280;11096;51.338;12.524;2023-02-20T04:39:01;100653.66;;;6.22;95.64
21863;BME280;11096;51.338;12.524;2023-02-20T04:41:26;100653.78;;;6.19;95.49
21863;BME280;11096;51.338;12.524;2023-02-20T04:43:52;100653.22;;;6.13;95.82
21863;BME280;11096;51.338;12.524;2023-02-20T04:46:37;100649.34;;;6.23;95.71
21863;BME280;11096;51.338;12.524;2023-02-20T04:49:02;100654.63;;;6.20;95.57
21863;BME280;11096;51.338;12.524;2023-02-20T04:51:28;100652.97;;;6.19;96.13
21863;BME280;11096;51.338;12.524;2023-02-20T04:53:53;100646.97;;;6.18;96.32
21863;BME280;11096;51.338;12.524;2023-02-20T04:56:19;100649.34;;;6.23;96.07
21863;BME280;11096;51.338;12.524;2023-02-20T04:58:47;100637.19;;;6.25;96.16
21863;BME280;11096;51.338;12.524;2023-02-20T05:01:14;100626.88;;;6.25;96.42
21863;BME280;11096;51.338;12.524;2023-02-20T05:03:39;100629.59;;;6.22;96.26
21863;BME280;11096;51.338;12.524;2023-02-20T05:06:04;100616.34;;;6.30;96.51
21863;BME280;11096;51.338;12.524;2023-02-20T05:08:30;100611.13;;;6.31;96.57
21863;BME280;11096;51.338;12.524;2023-02-20T05:10:56;100599.22;;;6.29;96.76
21863;BME280;11096;51.338;12.524;2023-02-20T05:13:21;100596.88;;;6.22;97.13
21863;BME280;11096;51.338;12.524;2023-02-20T05:15:47;100601.06;;;6.25;97.34
21863;BME280;11096;51.338;12.524;2023-02-20T05:18:12;100591.59;;;6.26;97.70
21863;BME280;11096;51.338;12.524;2023-02-20T05:20:38;100594.09;;;6.27;97.82
21863;BME280;11096;51.338;12.524;2023-02-20T05:23:21;100593.22;;;6.28;98.30
21863;BME280;11096;51.338;12.524;2023-02-20T05:25:47;100581.91;;;6.31;98.35
21863;BME280;11096;51.338;12.524;2023-02-20T05:28:13;100567.75;;;6.20;98.37
21863;BME280;11096;51.338;12.524;2023-02-20T05:30:38;100562.94;;;6.32;97.84
21863;BME280;11096;51.338;12.524;2023-02-20T05:33:04;100575.00;;;6.31;97.19
21863;BME280;11096;51.338;12.524;2023-02-20T05:35:30;100579.19;;;6.34;96.88
21863;BME280;11096;51.338;12.524;2023-02-20T05:37:55;100575.06;;;6.30;96.09
21863;BME280;11096;51.338;12.524;2023-02-20T05:40:20;100585.38;;;6.30;96.25
21863;BME280;11096;51.338;12.524;2023-02-20T05:42:46;100574.44;;;6.24;95.85
21863;BME280;11096;51.338;12.524;2023-02-20T05:45:13;100575.69;;;6.35;95.24
21863;BME280;11096;51.338;12.524;2023-02-20T05:47:38;100584.22;;;6.37;94.24
21863;BME280;11096;51.338;12.524;2023-02-20T05:50:04;100574.44;;;6.24;94.14
21863;BME280;11096;51.338;12.524;2023-02-20T05:52:30;100573.97;;;6.35;93.50
21863;BME280;11096;51.338;12.524;2023-02-20T05:54:55;100567.47;;;6.27;92.63
21863;BME280;11096;51.338;12.524;2023-02-20T05:57:20;100575.84;;;6.32;92.69
21863;BME280;11096;51.338;12.524;2023-02-20T05:59:46;100565.72;;;6.27;92.13
21863;BME280;11096;51.338;12.524;2023-02-20T06:02:11;100555.19;;;6.32;91.73
21863;BME280;11096;51.338;12.524;2023-02-20T06:04:37;100564.94;;;6.25;91.38
21863;BME280;11096;51.338;12.524;2023-02-20T06:07:02;100566.69;;;6.24;90.13
21863;BME280;11096;51.338;12.524;2023-02-20T06:09:28;100563.69;;;6.34;89.66
21863;BME280;11096;51.338;12.524;2023-02-20T06:11:55;100547.22;;;6.17;89.60
21863;BME280;11096;51.338;12.524;2023-02-20T06:14:24;100547.19;;;6.38;88.82
21863;BME280;11096;51.338;12.524;2023-02-20T06:16:50;100526.66;;;6.35;88.18
21863;BME280;11096;51.338;12.524;2023-02-20T06:19:20;100528.59;;;6.30;88.33
21863;BME280;11096;51.338;12.524;2023-02-20T06:21:48;100526.00;;;6.30;87.76
21863;BME280;11096;51.338;12.524;2023-02-20T06:24:14;100525.34;;;6.26;87.53
21863;BME280;11096;51.338;12.524;2023-02-20T06:26:41;100533.34;;;6.39;86.95
21863;BME280;11096;51.338;12.524;2023-02-20T06:29:06;100525.03;;;6.32;87.37
21863;BME280;11096;51.338;12.524;2023-02-20T06:31:32;100524.00;;;6.36;86.70
21863;BME280;11096;51.338;12.524;2023-02-20T06:33:57;100506.28;;;6.29;86.05
21863;BME280;11096;51.338;12.524;2023-02-20T06:36:26;100496.31;;;6.21;85.83
21863;BME280;11096;51.338;12.524;2023-02-20T06:38:52;100494.56;;;6.21;85.67
21863;BME280;11096;51.338;12.524;2023-02-20T06:41:17;100491.16;;;6.40;85.98
21863;BME280;11096;51.338;12.524;2023-02-20T06:43:43;100487.41;;;6.28;85.16
21863;BME280;11096;51.338;12.524;2023-02-20T06:46:08;100501.91;;;6.31;84.92
21863;BME280;11096;51.338;12.524;2023-02-20T06:48:34;100486.75;;;6.42;84.17
21863;BME280;11096;51.338;12.524;2023-02-20T06:50:59;100495.63;;;6.36;84.31
21863;BME280;11096;51.338;12.524;2023-02-20T06:53:24;100503.81;;;6.44;84.06
21863;BME280;11096;51.338;12.524;2023-02-20T06:55:50;100502.72;;;6.50;83.65
21863;BME280;11096;51.338;12.524;2023-02-20T06:58:15;100505.88;;;6.38;83.28
21863;BME280;11096;51.338;12.524;2023-02-20T07:00:41;100504.19;;;6.37;83.42
21863;BME280;11096;51.338;12.524;2023-02-20T07:03:06;100496.31;;;6.40;83.48
21863;BME280;11096;51.338;12.524;2023-02-20T07:05:31;100490.19;;;6.42;82.38
21863;BME280;11096;51.338;12.524;2023-02-20T07:07:57;100484.34;;;6.56;82.09
21863;BME280;11096;51.338;12.524;2023-02-20T07:10:22;100490.50;;;6.54;82.13
21863;BME280;11096;51.338;12.524;2023-02-20T07:12:48;100497.00;;;6.62;81.47
21863;BME280;11096;51.338;12.524;2023-02-20T07:15:13;100491.69;;;6.65;81.42
21863;BME280;11096;51.338;12.524;2023-02-20T07:17:38;100506.47;;;6.62;81.33
21863;BME280;11096;51.338;12.524;2023-02-20T07:20:05;100513.88;;;6.51;81.72
21863;BME280;11096;51.338;12.524;2023-02-20T07:22:30;100508.38;;;6.58;80.99
21863;BME280;11096;51.338;12.524;2023-02-20T07:24:56;100492.44;;;6.68;80.53
21863;BME280;11096;51.338;12.524;2023-02-20T07:27:22;100489.69;;;6.53;81.01
21863;BME280;11096;51.338;12.524;2023-02-20T07:29:48;100481.41;;;6.64;80.91
21863;BME280;11096;51.338;12.524;2023-02-20T07:32:14;100475.63;;;6.59;80.65
21863;BME280;11096;51.338;12.524;2023-02-20T07:34:47;100458.25;;;6.62;80.19
21863;BME280;11096;51.338;12.524;2023-02-20T07:37:13;100464.56;;;6.74;80.29
21863;BME280;11096;51.338;12.524;2023-02-20T07:39:39;100462.91;;;6.73;80.30
21863;BME280;11096;51.338;12.524;2023-02-20T07:42:04;100463.75;;;6.91;79.62
21863;BME280;11096;51.338;12.524;2023-02-20T07:44:30;100455.41;;;7.03;79.81
21863;BME280;11096;51.338;12.524;2023-02-20T07:46:55;100469.09;;;7.05;79.41
21863;BME280;11096;51.338;12.524;2023-02-20T07:49:20;100470.19;;;7.36;78.67
21863;BME280;11096;51.338;12.524;2023-02-20T07:51:46;100463.31;;;7.35;78.41
21863;BME280;11096;51.338;12.524;2023-02-20T07:54:11;100447.13;;;7.65;77.53
21863;BME280;11096;51.338;12.524;2023-02-20T07:56:39;100437.97;;;7.75;76.62
21863;BME280;11096;51.338;12.524;2023-02-20T07:59:05;100430.44;;;7.88;75.97
21863;BME280;11096;51.338;12.524;2023-02-20T08:01:30;100424.09;;;7.93;76.03
21863;BME280;11096;51.338;12.524;2023-02-20T08:03:55;100419.31;;;8.02;75.74
21863;BME280;11096;51.338;12.524;2023-02-20T08:06:21;100412.16;;;7.91;75.45
21863;BME280;11096;51.338;12.524;2023-02-20T08:08:47;100406.16;;;7.90;75.35
21863;BME280;11096;51.338;12.524;2023-02-20T08:11:14;100409.47;;;7.92;74.64
21863;BME280;11096;51.338;12.524;2023-02-20T08:13:41;100412.56;;;7.99;74.33
21863;BME280;11096;51.338;12.524;2023-02-20T08:16:07;100419.97;;;7.89;74.35
21863;BME280;11096;51.338;12.524;2023-02-20T08:18:33;100410.16;;;7.96;73.96
21863;BME280;11096;51.338;12.524;2023-02-20T08:20:58;100422.00;;;8.00;74.14
21863;BME280;11096;51.338;12.524;2023-02-20T08:23:23;100406.13;;;8.06;73.67
21863;BME280;11096;51.338;12.524;2023-02-20T08:25:50;100415.00;;;8.18;73.67
21863;BME280;11096;51.338;12.524;2023-02-20T08:28:16;100398.09;;;8.27;73.55
21863;BME280;11096;51.338;12.524;2023-02-20T08:30:41;100392.59;;;8.33;73.40
21863;BME280;11096;51.338;12.524;2023-02-20T08:33:07;100398.72;;;8.32;72.93
21863;BME280;11096;51.338;12.524;2023-02-20T08:35:32;100403.50;;;8.40;72.46
21863;BME280;11096;51.338;12.524;2023-02-20T08:38:05;100404.66;;;8.50;73.06
21863;BME280;11096;51.338;12.524;2023-02-20T08:40:32;100395.94;;;8.35;72.51
21863;BME280;11096;51.338;12.524;2023-02-20T08:42:57;100413.50;;;8.46;72.95
21863;BME280;11096;51.338;12.524;2023-02-20T08:45:23;100414.25;;;8.48;72.78
21863;BME280;11096;51.338;12.524;2023-02-20T08:47:49;100401.25;;;8.64;72.40
21863;BME280;11096;51.338;12.524;2023-02-20T08:50:17;100395.88;;;8.52;72.09
21863;BME280;11096;51.338;12.524;2023-02-20T08:52:43;100398.41;;;8.68;72.67
21863;BME280;11096;51.338;12.524;2023-02-20T08:55:09;100400.78;;;8.57;73.15
21863;BME280;11096;51.338;12.524;2023-02-20T08:57:34;100404.66;;;8.80;73.72
21863;BME280;11096;51.338;12.524;2023-02-20T09:00:00;100409.41;;;8.88;72.82
21863;BME280;11096;51.338;12.524;2023-02-20T09:02:25;100408.56;;;8.87;72.57
21863;BME280;11096;51.338;12.524;2023-02-20T09:04:54;100397.25;;;8.74;72.09
21863;BME280;11096;51.338;12.524;2023-02-20T09:07:20;100395.13;;;9.11;71.99
21863;BME280;11096;51.338;12.524;2023-02-20T09:09:45;100392.63;;;9.23;71.82
21863;BME280;11096;51.338;12.524;2023-02-20T09:12:11;100398.56;;;9.26;71.49
21863;BME280;11096;51.338;12.524;2023-02-20T09:14:37;100401.63;;;9.46;71.29
21863;BME280;11096;51.338;12.524;2023-02-20T09:17:03;100402.72;;;9.57;70.35
21863;BME280;11096;51.338;12.524;2023-02-20T09:19:29;100399.22;;;9.58;70.39
21863;BME280;11096;51.338;12.524;2023-02-20T09:21:55;100400.75;;;9.89;70.46
21863;BME280;11096;51.338;12.524;2023-02-20T09:24:20;100395.69;;;9.87;69.63
21863;BME280;11096;51.338;12.524;2023-02-20T09:26:46;100384.84;;;9.66;69.53
21863;BME280;11096;51.338;12.524;2023-02-20T09:29:11;100387.75;;;9.48;70.01
21863;BME280;11096;51.338;12.524;2023-02-20T09:31:36;100387.44;;;9.52;69.82
21863;BME280;11096;51.338;12.524;2023-02-20T09:34:02;100383.00;;;9.54;69.86
21863;BME280;11096;51.338;12.524;2023-02-20T09:36:28;100388.28;;;9.53;69.32
21863;BME280;11096;51.338;12.524;2023-02-20T09:38:53;100382.09;;;9.55;70.00
21863;BME280;11096;51.338;12.524;2023-02-20T09:44:41;100387.78;;;9.89;68.93
21863;BME280;11096;51.338;12.524;2023-02-20T09:50:02;100380.72;;;9.91;67.78
21863;BME280;11096;51.338;12.524;2023-02-20T09:52:30;100380.00;;;10.16;68.39
21863;BME280;11096;51.338;12.524;2023-02-20T09:55:11;100379.13;;;10.84;66.47
21863;BME280;11096;51.338;12.524;2023-02-20T09:57:39;100386.22;;;11.33;64.95
21863;BME280;11096;51.338;12.524;2023-02-20T10:00:13;100372.47;;;11.44;63.76
21863;BME280;11096;51.338;12.524;2023-02-20T10:02:45;100361.44;;;10.89;64.02
21863;BME280;11096;51.338;12.524;2023-02-20T10:05:26;100365.31;;;10.96;64.78
21863;BME280;11096;51.338;12.524;2023-02-20T10:07:52;100355.72;;;10.84;64.15
21863;BME280;11096;51.338;12.524;2023-02-20T10:10:38;100334.31;;;11.19;63.68
21863;BME280;11096;51.338;12.524;2023-02-20T10:24:14;100291.69;;;11.82;61.39
21863;BME280;11096;51.338;12.524;2023-02-20T10:26:46;100294.84;;;11.88;61.10
21863;BME280;11096;51.338;12.524;2023-02-20T10:29:17;100294.56;;;12.03;60.97
21863;BME280;11096;51.338;12.524;2023-02-20T10:31:48;100280.44;;;11.95;60.13
21863;BME280;11096;51.338;12.524;2023-02-20T10:34:30;100273.56;;;11.81;58.80
21863;BME280;11096;51.338;12.524;2023-02-20T10:37:12;100257.69;;;12.21;59.38
21863;BME280;11096;51.338;12.524;2023-02-20T10:39:44;100253.97;;;12.12;59.73
21863;BME280;11096;51.338;12.524;2023-02-20T10:42:15;100232.84;;;12.28;58.28
21863;BME280;11096;51.338;12.524;2023-02-20T10:45:09;100225.38;;;12.23;58.93
21863;BME280;11096;51.338;12.524;2023-02-20T10:47:46;100217.56;;;12.23;58.45
21863;BME280;11096;51.338;12.524;2023-02-20T10:50:27;100220.75;;;12.27;58.66
21863;BME280;11096;51.338;12.524;2023-02-20T10:53:06;100224.56;;;12.34;58.53
21863;BME280;11096;51.338;12.524;2023-02-20T10:58:16;100256.00;;;12.66;57.66
21863;BME280;11096;51.338;12.524;2023-02-20T11:01:01;100251.78;;;13.10;58.62
21863;BME280;11096;51.338;12.524;2023-02-20T11:06:05;100250.84;;;13.34;56.45
21863;BME280;11096;51.338;12.524;2023-02-20T11:08:33;100247.28;;;13.35;56.13
21863;BME280;11096;51.338;12.524;2023-02-20T11:11:05;100236.00;;;13.35;56.49
21863;BME280;11096;51.338;12.524;2023-02-20T11:13:40;100223.94;;;13.66;55.21
21863;BME280;11096;51.338;12.524;2023-02-20T11:16:19;100202.19;;;13.77;55.39
21863;BME280;11096;51.338;12.524;2023-02-20T11:18:46;100224.50;;;13.37;55.52
21863;BME280;11096;51.338;12.524;2023-02-20T11:21:36;100195.66;;;13.39;54.99
21863;BME280;11096;51.338;12.524;2023-02-20T11:24:41;100195.19;;;12.55;56.67
21863;BME280;11096;51.338;12.524;2023-02-20T11:29:53;100179.94;;;12.84;56.53
21863;BME280;11096;51.338;12.524;2023-02-20T11:32:36;100175.41;;;12.41;57.01
21863;BME280;11096;51.338;12.524;2023-02-20T11:37:28;100168.19;;;12.44;56.12
21863;BME280;11096;51.338;12.524;2023-02-20T11:39:55;100156.81;;;12.79;56.15
21863;BME280;11096;51.338;12.524;2023-02-20T11:42:30;100151.97;;;12.63;57.42
21863;BME280;11096;51.338;12.524;2023-02-20T11:45:21;100141.88;;;12.14;57.88
21863;BME280;11096;51.338;12.524;2023-02-20T11:50:46;100129.56;;;12.27;57.37
21863;BME280;11096;51.338;12.524;2023-02-20T11:53:19;100131.56;;;12.35;57.33
21863;BME280;11096;51.338;12.524;2023-02-20T11:55:46;100126.25;;;12.48;57.41
21863;BME280;11096;51.338;12.524;2023-02-20T11:58:24;100133.94;;;12.49;57.75
21863;BME280;11096;51.338;12.524;2023-02-20T12:00:51;100112.41;;;12.58;56.89
21863;BME280;11096;51.338;12.524;2023-02-20T12:03:26;100124.34;;;12.50;58.05
21863;BME280;11096;51.338;12.524;2023-02-20T12:05:57;100137.97;;;12.42;56.54
21863;BME280;11096;51.338;12.524;2023-02-20T12:11:07;100104.31;;;12.28;57.49
21863;BME280;11096;51.338;12.524;2023-02-20T12:13:37;100083.69;;;12.70;57.22
21863;BME280;11096;51.338;12.524;2023-02-20T12:16:40;100085.00;;;12.53;57.30
21863;BME280;11096;51.338;12.524;2023-02-20T12:19:31;100107.06;;;12.49;57.14
21863;BME280;11096;51.338;12.524;2023-02-20T12:22:18;100101.25;;;12.45;57.10
21863;BME280;11096;51.338;12.524;2023-02-20T12:24:58;100094.59;;;12.52;57.36
21863;BME280;11096;51.338;12.524;2023-02-20T12:33:23;100095.56;;;12.06;58.47
21863;BME280;11096;51.338;12.524;2023-02-20T12:38:49;100102.69;;;12.27;59.07
21863;BME280;11096;51.338;12.524;2023-02-20T12:44:23;100100.19;;;12.48;58.63
21863;BME280;11096;51.338;12.524;2023-02-20T12:49:58;100101.03;;;12.48;59.58
21863;BME280;11096;51.338;12.524;2023-02-20T12:52:46;100097.19;;;12.75;59.53
21863;BME280;11096;51.338;12.524;2023-02-20T13:03:12;100080.47;;;12.77;60.04
21863;BME280;11096;51.338;12.524;2023-02-20T13:05:42;100077.41;;;12.72;60.10
21863;BME280;11096;51.338;12.524;2023-02-20T13:08:31;100061.28;;;12.78;60.10
21863;BME280;11096;51.338;12.524;2023-02-20T13:11:00;100064.66;;;12.58;61.01
21863;BME280;11096;51.338;12.524;2023-02-20T13:19:14;100056.56;;;13.16;59.83
21863;BME280;11096;51.338;12.524;2023-02-20T13:21:41;100058.06;;;12.75;61.19
21863;BME280;11096;51.338;12.524;2023-02-20T13:24:33;100060.56;;;12.87;61.93
21863;BME280;11096;51.338;12.524;2023-02-20T13:27:06;100059.91;;;13.06;61.60
21863;BME280;11096;51.338;12.524;2023-02-20T13:29:37;100051.69;;;13.11;61.49
21863;BME280;11096;51.338;12.524;2023-02-20T13:34:44;100053.91;;;12.95;61.67
21863;BME280;11096;51.338;12.524;2023-02-20T13:45:46;100045.66;;;13.10;61.77
21863;BME280;11096;51.338;12.524;2023-02-20T13:50:43;100037.72;;;13.44;61.10
21863;BME280;11096;51.338;12.524;2023-02-20T13:53:09;100023.28;;;14.23;60.09
21863;BME280;11096;51.338;12.524;2023-02-20T13:55:35;100035.34;;;14.14;59.72
21863;BME280;11096;51.338;12.524;2023-02-20T13:58:11;100025.22;;;14.21;58.83
21863;BME280;11096;51.338;12.524;2023-02-20T14:03:31;100017.34;;;14.11;59.80
21863;BME280;11096;51.338;12.524;2023-02-20T14:08:35;100040.97;;;13.58;61.12
21863;BME280;11096;51.338;12.524;2023-02-20T14:11:31;100046.50;;;13.64;61.32
21863;BME280;11096;51.338;12.524;2023-02-20T14:13:58;100045.28;;;13.47;61.58
21863;BME280;11096;51.338;12.524;2023-02-20T14:16:30;100042.03;;;13.34;61.38
21863;BME280;11096;51.338;12.524;2023-02-20T14:19:06;100055.78;;;13.78;60.97
21863;BME280;11096;51.338;12.524;2023-02-20T14:21:35;100057.84;;;13.74;60.62
21863;BME280;11096;51.338;12.524;2023-02-20T14:24:27;100058.59;;;13.65;61.12
21863;BME280;11096;51.338;12.524;2023-02-20T14:26:53;100034.91;;;13.57;61.23
21863;BME280;11096;51.338;12.524;2023-02-20T14:29:32;100029.00;;;13.23;62.19
21863;BME280;11096;51.338;12.524;2023-02-20T14:32:00;100034.94;;;12.93;63.19
21863;BME280;11096;51.338;12.524;2023-02-20T14:34:47;100019.69;;;12.77;63.60
21863;BME280;11096;51.338;12.524;2023-02-20T14:40:17;100024.66;;;12.80;64.44
21863;BME280;11096;51.338;12.524;2023-02-20T14:42:48;100019.13;;;12.62;64.85
21863;BME280;11096;51.338;12.524;2023-02-20T14:45:16;100022.22;;;12.44;65.74
21863;BME280;11096;51.338;12.524;2023-02-20T14:47:54;100009.09;;;12.35;66.36
21863;BME280;11096;51.338;12.524;2023-02-20T14:55:30;100012.91;;;12.31;67.47